createdAt,value
2023-04-07T00:02:38.657Z,4.57
2023-04-07T00:07:48.832Z,5.35
2023-04-07T00:12:54.431Z,5.53
2023-04-07T00:17:55.983Z,5.85
2023-04-07T00:22:57.490Z,4.53
2023-04-07T00:27:58.994Z,3.83
2023-04-07T00:33:00.702Z,3.95
2023-04-07T00:38:02.242Z,3.95
2023-04-07T00:43:03.802Z,3.95
2023-04-07T00:48:05.919Z,4.10
2023-04-07T00:53:08.434Z,4.50
2023-04-07T00:58:10.395Z,3.97
2023-04-07T01:03:24.384Z,4.28
2023-04-07T01:08:44.946Z,4.78
2023-04-07T01:13:50.065Z,3.83
2023-04-07T01:19:11.613Z,4.57
2023-04-07T01:24:32.111Z,4.38
2023-04-07T01:29:42.139Z,3.60
2023-04-07T01:34:47.831Z,3.65
2023-04-07T01:39:49.382Z,3.83
2023-04-07T01:44:51.822Z,3.55
2023-04-07T01:49:55.197Z,3.80
2023-04-07T01:54:56.801Z,3.50
2023-04-07T01:59:59.638Z,3.78
2023-04-07T02:05:08.803Z,4.10
2023-04-07T02:10:15.264Z,3.55
2023-04-07T02:15:19.115Z,3.63
2023-04-07T02:20:22.304Z,3.63
2023-04-07T02:25:31.925Z,3.53
2023-04-07T02:30:33.899Z,3.63
2023-04-07T02:35:35.582Z,3.55
2023-04-07T02:40:37.194Z,3.38
2023-04-07T02:45:38.794Z,3.83
2023-04-07T02:50:40.246Z,3.65
2023-04-07T02:55:41.908Z,3.17
2023-04-07T03:00:43.499Z,3.00
2023-04-07T03:05:49.414Z,3.53
2023-04-07T03:10:51.111Z,3.80
2023-04-07T03:15:58.794Z,3.47
2023-04-07T03:21:05.104Z,3.17
2023-04-07T03:26:06.742Z,3.42
2023-04-07T03:31:11.262Z,3.60
2023-04-07T03:36:12.994Z,3.40
2023-04-07T03:41:15.790Z,3.97
2023-04-07T03:46:19.421Z,3.08
2023-04-07T03:51:21.189Z,3.83
2023-04-07T03:56:28.960Z,2.83
2023-04-07T04:01:32.768Z,3.90
2023-04-07T04:06:41.545Z,3.38
2023-04-07T04:11:52.323Z,3.03
2023-04-07T04:16:54.710Z,3.38
2023-04-07T04:22:19.083Z,3.50
2023-04-07T04:27:28.255Z,3.10
2023-04-07T04:32:38.267Z,4.05
2023-04-07T04:37:40.858Z,3.60
2023-04-07T04:42:45.460Z,3.95
2023-04-07T04:47:48.273Z,3.35
2023-04-07T04:52:51.182Z,3.85
2023-04-07T04:57:57.965Z,3.60
2023-04-07T05:03:09.443Z,3.80
2023-04-07T05:08:14.982Z,3.30
2023-04-07T05:13:17.480Z,3.28
2023-04-07T05:18:20.419Z,3.25
2023-04-07T05:23:22.566Z,3.83
2023-04-07T05:28:26.243Z,3.45
2023-04-07T05:33:30.541Z,3.78
2023-04-07T05:38:32.242Z,3.03
2023-04-07T05:43:41.381Z,3.45
2023-04-07T05:48:43.600Z,3.67
2023-04-07T05:53:45.178Z,4.25
2023-04-07T05:58:46.925Z,3.17
2023-04-07T06:03:50.271Z,3.88
2023-04-07T06:08:57.920Z,3.38
2023-04-07T06:14:00.036Z,3.28
2023-04-07T06:19:01.625Z,3.50
2023-04-07T06:24:04.200Z,4.82
2023-04-07T06:29:05.724Z,3.72
2023-04-07T06:34:07.217Z,3.90
2023-04-07T06:39:08.739Z,4.45
2023-04-07T06:44:10.476Z,4.57
2023-04-07T06:49:11.908Z,4.60
2023-04-07T06:54:13.359Z,4.55
2023-04-07T06:59:14.807Z,4.70
2023-04-07T07:04:16.571Z,7.43
2023-04-07T07:09:18.209Z,5.18
2023-04-07T07:14:19.663Z,4.65
2023-04-07T07:19:21.137Z,4.25
2023-04-07T07:24:22.579Z,3.75
2023-04-07T07:29:24.079Z,4.80
2023-04-07T07:34:25.745Z,4.13
2023-04-07T07:39:27.328Z,4.47
2023-04-07T07:44:30.761Z,3.80
2023-04-07T07:49:33.472Z,4.57
2023-04-07T07:54:35.092Z,4.00
2023-04-07T07:59:36.586Z,4.35
2023-04-07T08:04:38.147Z,4.72
2023-04-07T08:09:39.688Z,4.32
2023-04-07T08:14:41.294Z,3.90
2023-04-07T08:19:42.703Z,5.65
2023-04-07T08:30:07.355Z,3.72
2023-04-07T08:35:09.358Z,4.00
2023-04-07T08:40:11.780Z,4.73
2023-04-07T08:45:13.914Z,3.47
2023-04-07T08:50:17.458Z,3.65
2023-04-07T08:55:19.116Z,3.75
2023-04-07T09:00:20.858Z,4.35
2023-04-07T09:05:23.039Z,3.55
2023-04-07T09:10:24.468Z,3.70
2023-04-07T09:15:29.951Z,3.47
2023-04-07T09:21:02.155Z,3.53
2023-04-07T09:26:18.651Z,3.88
2023-04-07T09:31:22.781Z,4.35
2023-04-07T09:36:24.825Z,4.22
2023-04-07T09:41:27.726Z,4.05
2023-04-07T09:46:30.597Z,4.43
2023-04-07T09:51:32.299Z,4.15
2023-04-07T09:56:33.966Z,4.70
2023-04-07T10:01:35.850Z,3.38
2023-04-07T10:06:37.419Z,4.45
2023-04-07T10:11:40.750Z,3.90
2023-04-07T10:16:43.153Z,3.83
2023-04-07T10:21:45.187Z,3.60
2023-04-07T10:26:52.975Z,4.13
2023-04-07T10:31:54.639Z,3.95
2023-04-07T10:37:11.551Z,4.38
2023-04-07T10:42:38.039Z,4.47
2023-04-07T10:47:57.657Z,3.67
2023-04-07T10:53:12.785Z,4.32
2023-04-07T10:58:27.606Z,4.53
2023-04-07T11:03:31.444Z,4.30
2023-04-07T11:08:37.250Z,4.90
2023-04-07T11:13:46.926Z,5.32
2023-04-07T11:18:48.573Z,4.75
2023-04-07T11:23:50.214Z,4.95
2023-04-07T11:28:55.716Z,5.00
2023-04-07T11:34:04.945Z,4.82
2023-04-07T11:39:18.070Z,4.93
2023-04-07T11:44:19.933Z,4.65
2023-04-07T11:49:21.589Z,5.68
2023-04-07T11:54:23.063Z,4.60
2023-04-07T11:59:25.838Z,4.45
2023-04-07T12:04:27.391Z,5.05
2023-04-07T12:09:33.839Z,3.95
2023-04-07T12:14:36.054Z,9.07
2023-04-07T12:19:37.507Z,3.97
2023-04-07T12:24:38.935Z,4.07
2023-04-07T12:29:40.348Z,4.85
2023-04-07T12:34:41.839Z,3.75
2023-04-07T12:39:43.279Z,4.07
2023-04-07T12:44:44.828Z,3.65
2023-04-07T12:49:47.849Z,4.28
2023-04-07T12:54:50.660Z,3.05
2023-04-07T12:59:52.052Z,3.28
2023-04-07T13:04:53.485Z,3.47
2023-04-07T13:09:54.927Z,3.30
2023-04-07T13:15:00.302Z,3.83
2023-04-07T13:20:03.732Z,3.35
2023-04-07T13:25:05.773Z,3.53
2023-04-07T13:30:07.844Z,3.75
2023-04-07T13:35:09.319Z,3.63
2023-04-07T13:40:11.522Z,3.95
2023-04-07T13:45:13.046Z,3.60
2023-04-07T13:50:14.561Z,3.35
2023-04-07T13:55:16.171Z,3.63
2023-04-07T14:00:17.832Z,3.72
2023-04-07T14:05:19.269Z,3.58
2023-04-07T14:10:20.741Z,3.40
2023-04-07T14:15:22.271Z,3.53
2023-04-07T14:20:25.329Z,3.70
2023-04-07T14:25:28.091Z,4.30
2023-04-07T14:30:29.670Z,4.15
2023-04-07T14:35:31.223Z,3.67
2023-04-07T14:40:32.742Z,3.50
2023-04-07T14:45:34.881Z,3.72
2023-04-07T14:50:36.373Z,3.53
2023-04-07T14:55:37.892Z,2.78
2023-04-07T15:00:39.397Z,1.88
2023-04-07T15:05:40.853Z,1.40
2023-04-07T15:10:42.301Z,1.20
2023-04-07T15:15:43.858Z,1.20
2023-04-07T15:20:45.320Z,0.90
2023-04-07T15:25:47.560Z,2.40
2023-04-07T15:30:49.037Z,2.20
2023-04-07T15:35:50.662Z,2.05
2023-04-07T15:40:52.153Z,5.78
2023-04-07T15:45:55.619Z,1.85
2023-04-07T15:50:57.156Z,1.50
2023-04-07T15:55:58.612Z,1.30
2023-04-07T16:01:00.376Z,1.77
2023-04-07T16:06:01.946Z,1.67
2023-04-07T16:11:03.454Z,1.65
2023-04-07T16:16:05.182Z,1.90
2023-04-07T16:21:07.282Z,1.95
2023-04-07T16:26:09.069Z,2.42
2023-04-07T16:31:10.589Z,1.60
2023-04-07T16:36:12.172Z,2.17
2023-04-07T16:41:13.694Z,1.77
2023-04-07T16:46:15.216Z,3.13
2023-04-07T16:51:17.428Z,2.00
2023-04-07T16:56:20.975Z,1.65
2023-04-07T17:01:22.504Z,1.75
2023-04-07T17:06:23.970Z,2.08
2023-04-07T17:11:25.413Z,1.88
2023-04-07T17:16:26.953Z,2.00
2023-04-07T17:21:28.431Z,2.95
2023-04-07T17:26:29.918Z,1.67
2023-04-07T17:31:31.366Z,1.60
2023-04-07T17:36:33.053Z,1.85
2023-04-07T17:41:34.657Z,3.72
2023-04-07T17:46:36.242Z,1.73
2023-04-07T17:51:37.729Z,2.53
2023-04-07T17:56:39.228Z,2.70
2023-04-07T18:01:40.801Z,2.00
2023-04-07T18:06:42.393Z,1.58
2023-04-07T18:11:43.833Z,1.70
2023-04-07T18:16:45.319Z,2.15
2023-04-07T18:21:47.210Z,2.25
2023-04-07T18:26:48.695Z,2.75
2023-04-07T18:31:50.282Z,2.10
2023-04-07T18:36:52.136Z,6.03
2023-04-07T18:41:56.839Z,2.75
2023-04-07T18:46:58.341Z,5.43
2023-04-07T18:51:59.806Z,4.10
2023-04-07T18:57:01.374Z,3.83
2023-04-07T19:02:02.952Z,3.40
2023-04-07T19:07:04.614Z,4.43
2023-04-07T19:12:06.098Z,2.30
2023-04-07T19:17:07.635Z,4.93
2023-04-07T19:22:09.128Z,5.03
2023-04-07T19:27:10.674Z,4.03
2023-04-07T19:32:12.103Z,4.18
2023-04-07T19:37:13.550Z,4.20
2023-04-07T19:42:15.862Z,2.22
2023-04-07T19:47:17.403Z,2.60
2023-04-07T19:52:18.907Z,2.22
2023-04-07T19:57:20.422Z,2.60
2023-04-07T20:02:22.001Z,2.20
2023-04-07T20:07:23.474Z,2.60
2023-04-07T20:12:24.965Z,3.63
2023-04-07T20:17:26.527Z,4.65
2023-04-07T20:22:28.041Z,2.47
2023-04-07T20:27:29.463Z,2.38
2023-04-07T20:32:31.043Z,2.15
2023-04-07T20:37:32.538Z,3.63
2023-04-07T20:42:34.572Z,4.75
2023-04-07T20:47:36.090Z,3.05
2023-04-07T20:52:37.605Z,3.28
2023-04-07T20:57:39.032Z,2.80
2023-04-07T21:02:40.615Z,3.00
2023-04-07T21:07:42.244Z,3.20
2023-04-07T21:12:43.739Z,2.67
2023-04-07T21:17:45.356Z,2.40
2023-04-07T21:22:46.856Z,2.42
2023-04-07T21:27:48.406Z,2.50
2023-04-07T21:32:50.043Z,2.55
2023-04-07T21:37:51.599Z,2.67
2023-04-07T21:42:53.085Z,2.58
2023-04-07T21:47:54.568Z,2.67
2023-04-07T21:52:56.020Z,2.42
2023-04-07T21:57:57.489Z,2.95
2023-04-07T22:02:59.270Z,3.00
2023-04-07T22:08:00.875Z,2.83
2023-04-07T22:13:02.370Z,2.75
2023-04-07T22:18:03.916Z,2.67
2023-04-07T22:23:05.420Z,3.00
2023-04-07T22:28:06.972Z,2.97
2023-04-07T22:33:10.174Z,2.95
2023-04-07T22:38:11.808Z,3.25
2023-04-07T22:43:13.216Z,3.55
2023-04-07T22:48:14.808Z,3.72
2023-04-07T22:53:16.260Z,3.50
2023-04-07T22:58:17.706Z,3.38
2023-04-07T23:03:19.258Z,4.53
2023-04-07T23:08:20.913Z,4.05
2023-04-07T23:13:22.414Z,4.10
2023-04-07T23:18:23.940Z,3.80
2023-04-07T23:23:25.504Z,4.25
2023-04-07T23:28:26.969Z,4.43
2023-04-07T23:33:30.671Z,4.40
2023-04-07T23:38:32.172Z,4.18
2023-04-07T23:43:33.790Z,4.22
2023-04-07T23:48:35.290Z,4.00
2023-04-07T23:53:36.736Z,3.90
2023-04-07T23:58:38.264Z,4.60
